Time;durP1;ratioP1;P1;durP2;ratioP2;P2;SDS_P1;SDS_P2;PMS_P1;PMS_P2;Temp;Humidity;BMP_temperature;BMP_pressure;BME280_temperature;BME280_humidity;BME280_pressure;Samples;Min_cycle;Max_cycle;Signal;HPM_P1;HPM_P2
2023/01/09 00:00:40;;;;;;;6.65;1.88;;;8.20;99.90;;;;;;5067815;28;20036;-69
2023/01/09 00:03:06;;;;;;;11.73;1.60;;;8.20;99.90;;;;;;5042998;28;20112;-66
2023/01/09 00:05:32;;;;;;;10.85;1.55;;;8.10;99.90;;;;;;5061572;28;20158;-67
2023/01/09 00:07:57;;;;;;;9.93;1.60;;;8.00;99.90;;;;;;5070978;28;20472;-68
2023/01/09 00:10:23;;;;;;;14.20;1.55;;;8.00;99.90;;;;;;5070367;28;20670;-67
2023/01/09 00:12:48;;;;;;;9.15;1.40;;;8.00;99.90;;;;;;5070942;28;20046;-66
2023/01/09 00:15:14;;;;;;;7.57;1.30;;;8.00;99.90;;;;;;5065983;28;20040;-67
2023/01/09 00:17:40;;;;;;;12.18;2.17;;;8.00;99.90;;;;;;5067530;28;20095;-66
2023/01/09 00:20:08;;;;;;;13.68;2.25;;;8.00;99.90;;;;;;5064578;28;20424;-67
2023/01/09 00:22:35;;;;;;;8.43;1.70;;;8.00;99.90;;;;;;5068061;28;20089;-67
2023/01/09 00:25:01;;;;;;;9.68;1.52;;;7.90;99.90;;;;;;5068795;28;20024;-67
2023/01/09 00:27:31;;;;;;;10.82;1.65;;;8.00;99.90;;;;;;5069268;28;20137;-67
2023/01/09 00:29:57;;;;;;;18.58;1.73;;;7.90;99.90;;;;;;5065985;28;20107;-67
2023/01/09 00:32:22;;;;;;;16.55;2.10;;;7.80;99.90;;;;;;5063062;28;20525;-67
2023/01/09 00:34:48;;;;;;;18.52;2.65;;;7.80;99.90;;;;;;5065653;28;20815;-67
2023/01/09 00:37:13;;;;;;;14.43;2.40;;;7.70;99.90;;;;;;5070194;28;20039;-67
2023/01/09 00:39:40;;;;;;;10.40;1.83;;;7.70;99.90;;;;;;5061281;28;20111;-67
2023/01/09 00:42:09;;;;;;;15.93;2.60;;;7.70;99.90;;;;;;5069816;28;20114;-67
2023/01/09 00:44:41;;;;;;;10.88;1.70;;;7.60;99.90;;;;;;5072565;28;20110;-67
2023/01/09 00:47:17;;;;;;;10.80;1.65;;;7.60;99.90;;;;;;5072326;28;20033;-67
2023/01/09 00:49:44;;;;;;;7.90;1.38;;;7.50;99.90;;;;;;5070199;28;20056;-67
2023/01/09 00:52:12;;;;;;;7.45;1.15;;;7.50;99.90;;;;;;5072207;28;20067;-67
2023/01/09 00:54:39;;;;;;;4.65;1.50;;;7.40;99.90;;;;;;5063260;28;20452;-67
2023/01/09 00:57:05;;;;;;;6.85;1.60;;;7.40;99.90;;;;;;5065563;28;20094;-67
2023/01/09 00:59:31;;;;;;;7.40;0.90;;;7.40;99.90;;;;;;5074617;28;20024;-68
2023/01/09 01:01:57;;;;;;;5.22;2.13;;;7.30;99.90;;;;;;5067235;28;20043;-68
2023/01/09 01:09:51;;;;;;;9.23;1.40;;;7.20;99.90;;;;;;5069394;28;20519;-66
2023/01/09 01:12:17;;;;;;;10.45;2.20;;;7.20;99.90;;;;;;5069725;28;20028;-67
2023/01/09 01:14:42;;;;;;;8.77;1.80;;;7.20;99.90;;;;;;5071184;28;20055;-67
2023/01/09 01:17:08;;;;;;;4.35;1.13;;;7.10;99.90;;;;;;5065733;28;20044;-67
2023/01/09 01:19:34;;;;;;;9.15;2.00;;;7.10;99.90;;;;;;5062957;28;20032;-67
2023/01/09 01:22:00;;;;;;;5.63;1.77;;;7.10;99.90;;;;;;5069267;28;20119;-68
2023/01/09 01:24:26;;;;;;;13.50;2.05;;;7.10;99.90;;;;;;5069662;28;20100;-67
2023/01/09 01:26:51;;;;;;;11.63;1.80;;;7.00;99.90;;;;;;5062280;28;20025;-67
2023/01/09 01:29:17;;;;;;;6.45;1.73;;;7.00;99.90;;;;;;5071714;28;20116;-67
2023/01/09 01:31:42;;;;;;;9.50;1.92;;;7.00;99.90;;;;;;5068657;28;20067;-66
2023/01/09 01:34:08;;;;;;;7.13;1.50;;;7.00;99.90;;;;;;5072349;28;20088;-67
2023/01/09 01:36:34;;;;;;;11.85;3.15;;;7.00;99.90;;;;;;5073210;28;20059;-67
2023/01/09 01:39:00;;;;;;;9.02;1.80;;;7.00;99.90;;;;;;5071737;28;20050;-67
2023/01/09 01:41:28;;;;;;;9.32;1.98;;;6.90;99.90;;;;;;5071934;28;20435;-67
2023/01/09 01:44:01;;;;;;;8.80;2.08;;;6.90;99.90;;;;;;5053414;28;20028;-66
2023/01/09 01:46:28;;;;;;;9.30;1.60;;;6.90;99.90;;;;;;5072789;28;20056;-67
2023/01/09 01:49:05;;;;;;;8.90;1.98;;;6.90;99.90;;;;;;5065165;28;20028;-67
2023/01/09 01:51:45;;;;;;;8.93;2.00;;;6.90;99.90;;;;;;5066549;28;20523;-67
2023/01/09 01:54:17;;;;;;;3.63;1.38;;;6.90;99.90;;;;;;5061795;28;20048;-67
2023/01/09 01:56:47;;;;;;;9.95;2.00;;;6.90;99.90;;;;;;5052100;28;20040;-67
2023/01/09 01:59:24;;;;;;;6.13;1.35;;;6.90;99.90;;;;;;5070886;28;20578;-67
2023/01/09 02:01:55;;;;;;;4.55;1.40;;;6.90;99.90;;;;;;5066561;28;20084;-67
2023/01/09 02:04:20;;;;;;;6.63;1.70;;;6.90;99.90;;;;;;5062042;28;20082;-67
2023/01/09 02:06:48;;;;;;;5.20;1.88;;;6.90;99.90;;;;;;5072519;28;20430;-67
2023/01/09 02:09:16;;;;;;;6.93;1.95;;;6.90;99.90;;;;;;5071580;28;20468;-67
2023/01/09 02:11:46;;;;;;;9.68;2.00;;;6.90;99.90;;;;;;5066260;28;20029;-67
2023/01/09 02:14:13;;;;;;;11.98;2.17;;;6.90;99.90;;;;;;5054210;28;20549;-67
2023/01/09 02:17:01;;;;;;;5.38;2.00;;;6.90;99.90;;;;;;5072185;28;20044;-67
2023/01/09 02:19:55;;;;;;;8.77;2.05;;;6.90;99.90;;;;;;5071679;28;20476;-67
2023/01/09 02:22:29;;;;;;;5.50;2.03;;;6.90;99.90;;;;;;5071736;28;20475;-67
2023/01/09 02:25:13;;;;;;;8.57;1.90;;;6.90;99.90;;;;;;5053034;28;20096;-66
2023/01/09 02:28:07;;;;;;;11.43;2.95;;;6.90;99.90;;;;;;5059234;28;20028;-67
2023/01/09 02:30:47;;;;;;;6.15;2.95;;;6.90;99.90;;;;;;5067656;28;20040;-66
2023/01/09 02:33:25;;;;;;;10.73;2.90;;;6.80;99.90;;;;;;5072551;28;20060;-67
2023/01/09 02:35:57;;;;;;;5.88;2.30;;;6.90;99.90;;;;;;5072373;28;20082;-67
2023/01/09 02:38:41;;;;;;;4.75;2.03;;;6.80;99.90;;;;;;5054210;28;20077;-67
2023/01/09 02:41:34;;;;;;;8.90;2.92;;;6.80;99.90;;;;;;5069807;28;20032;-67
2023/01/09 02:44:26;;;;;;;7.65;2.42;;;6.80;99.90;;;;;;5071506;28;20154;-67
2023/01/09 02:47:25;;;;;;;6.45;2.42;;;6.80;99.90;;;;;;5052440;28;20056;-66
2023/01/09 02:49:53;;;;;;;10.02;3.00;;;6.90;99.90;;;;;;5056085;28;20102;-66
2023/01/09 02:52:52;;;;;;;5.45;2.90;;;6.90;99.90;;;;;;5070290;28;20380;-67
2023/01/09 02:55:44;;;;;;;9.82;2.53;;;6.90;99.90;;;;;;5055258;28;20028;-67
2023/01/09 02:58:35;;;;;;;9.57;3.05;;;6.90;99.90;;;;;;5072213;28;20028;-67
2023/01/09 03:01:25;;;;;;;10.57;3.55;;;6.90;99.90;;;;;;5070898;28;20029;-67
2023/01/09 03:04:13;;;;;;;6.00;3.15;;;7.00;99.90;;;;;;5071591;28;20107;-67
2023/01/09 03:07:01;;;;;;;7.00;2.90;;;7.00;99.90;;;;;;5071657;28;20036;-68
2023/01/09 03:09:30;;;;;;;10.73;2.88;;;7.00;99.90;;;;;;5060780;28;20033;-67
2023/01/09 03:12:04;;;;;;;11.77;2.72;;;7.00;99.90;;;;;;5069223;28;20412;-67
2023/01/09 03:14:32;;;;;;;12.50;3.28;;;7.00;99.90;;;;;;5070449;28;20017;-67
2023/01/09 03:17:02;;;;;;;7.93;3.30;;;7.00;99.90;;;;;;5032957;28;20037;-67
2023/01/09 03:19:31;;;;;;;8.20;2.80;;;7.00;99.90;;;;;;5040759;28;20021;-68
2023/01/09 03:21:57;;;;;;;8.32;3.33;;;7.00;99.90;;;;;;5043139;28;20762;-67
2023/01/09 03:24:23;;;;;;;15.25;3.70;;;7.00;99.90;;;;;;5043837;28;20031;-68
2023/01/09 03:26:49;;;;;;;11.55;3.33;;;7.00;99.90;;;;;;5033679;28;20029;-67
2023/01/09 03:29:15;;;;;;;9.00;3.20;;;7.00;99.90;;;;;;5032336;28;20039;-67
2023/01/09 03:31:40;;;;;;;8.30;3.17;;;7.00;99.90;;;;;;5045479;28;20029;-68
2023/01/09 03:34:06;;;;;;;9.55;3.53;;;7.00;99.90;;;;;;5052052;28;20036;-67
2023/01/09 03:36:31;;;;;;;16.65;3.45;;;7.00;99.90;;;;;;5052286;28;20135;-67
2023/01/09 03:38:57;;;;;;;7.00;2.90;;;7.00;99.90;;;;;;5051540;28;20108;-67
2023/01/09 03:41:23;;;;;;;9.05;2.75;;;7.00;99.90;;;;;;5049360;28;20037;-67
2023/01/09 03:43:48;;;;;;;11.85;3.20;;;7.00;99.90;;;;;;5052146;28;20029;-67
2023/01/09 03:46:15;;;;;;;6.68;2.70;;;7.00;99.90;;;;;;5038701;28;20104;-68
2023/01/09 03:48:41;;;;;;;7.40;3.40;;;7.00;99.90;;;;;;5032160;28;20564;-67
2023/01/09 03:51:07;;;;;;;9.68;3.50;;;6.90;99.90;;;;;;5041074;28;20136;-67
2023/01/09 03:53:33;;;;;;;7.80;3.22;;;7.00;99.90;;;;;;5051699;28;20044;-67
2023/01/09 03:55:58;;;;;;;10.60;3.35;;;7.00;99.90;;;;;;5052009;28;20048;-68
2023/01/09 03:58:25;;;;;;;9.07;3.90;;;7.00;99.90;;;;;;5052149;28;20453;-67
2023/01/09 04:00:56;;;;;;;10.35;4.10;;;7.00;99.90;;;;;;5039518;28;20091;-67
2023/01/09 04:03:21;;;;;;;11.68;4.45;;;7.00;99.90;;;;;;5041281;28;20473;-67
2023/01/09 04:05:48;;;;;;;13.82;4.43;;;7.00;99.90;;;;;;5051606;28;20040;-68
2023/01/09 04:08:14;;;;;;;20.38;5.68;;;7.00;99.90;;;;;;5051808;28;20022;-67
2023/01/09 04:10:43;;;;;;;14.13;3.35;;;7.10;99.90;;;;;;5047416;28;20102;-69
2023/01/09 04:13:09;;;;;;;9.60;3.92;;;7.10;99.90;;;;;;5043497;28;20059;-67
2023/01/09 04:15:34;;;;;;;10.07;3.10;;;7.00;99.90;;;;;;5064335;28;20074;-68
2023/01/09 04:18:00;;;;;;;14.20;4.82;;;7.00;99.90;;;;;;5076376;28;20068;-68
2023/01/09 04:20:27;;;;;;;12.63;3.85;;;7.00;99.90;;;;;;5065690;28;20423;-68
2023/01/09 04:22:53;;;;;;;19.17;4.85;;;7.00;99.90;;;;;;5075224;28;20031;-67
2023/01/09 04:25:18;;;;;;;10.93;3.85;;;7.00;99.90;;;;;;5074328;28;20059;-66
2023/01/09 04:27:44;;;;;;;10.90;3.88;;;7.00;99.90;;;;;;5074174;28;20040;-67
2023/01/09 04:30:10;;;;;;;14.45;4.45;;;7.10;99.90;;;;;;5074631;28;20029;-66
2023/01/09 04:32:35;;;;;;;14.75;4.13;;;7.10;99.90;;;;;;5056691;28;20094;-68
2023/01/09 04:35:01;;;;;;;11.80;3.40;;;7.10;99.90;;;;;;5062550;28;20025;-68
2023/01/09 04:37:27;;;;;;;10.70;3.85;;;7.10;99.90;;;;;;5071866;28;20070;-68
2023/01/09 04:39:54;;;;;;;8.88;3.22;;;7.10;99.90;;;;;;5074306;28;20028;-68
2023/01/09 04:42:20;;;;;;;5.15;2.53;;;7.10;99.90;;;;;;5060930;28;20029;-68
2023/01/09 04:44:46;;;;;;;10.27;2.88;;;7.10;99.90;;;;;;5056127;28;20040;-68
2023/01/09 04:47:12;;;;;;;8.55;3.90;;;7.10;99.90;;;;;;5075085;28;20032;-67
2023/01/09 04:49:38;;;;;;;4.68;2.50;;;7.10;99.90;;;;;;5073083;28;20025;-69
2023/01/09 04:52:04;;;;;;;6.45;2.40;;;7.10;99.90;;;;;;5074619;28;20028;-68
2023/01/09 04:54:29;;;;;;;7.03;2.47;;;7.10;99.90;;;;;;5074898;28;20112;-72
2023/01/09 04:56:55;;;;;;;16.98;3.60;;;7.10;99.90;;;;;;5073947;28;20401;-70
2023/01/09 04:59:21;;;;;;;9.43;3.58;;;7.00;99.90;;;;;;5072080;28;20115;-69
2023/01/09 05:01:46;;;;;;;8.80;2.78;;;7.00;99.90;;;;;;5064699;28;20029;-69
2023/01/09 05:04:13;;;;;;;9.52;2.67;;;7.00;99.90;;;;;;5055187;28;20040;-69
2023/01/09 05:06:38;;;;;;;5.38;2.42;;;6.90;99.90;;;;;;5071913;28;20036;-68
2023/01/09 05:09:04;;;;;;;6.25;2.88;;;6.90;99.90;;;;;;5070757;28;20397;-69
2023/01/09 05:11:30;;;;;;;11.75;3.60;;;6.90;99.90;;;;;;5054590;28;20388;-67
2023/01/09 05:13:56;;;;;;;14.18;3.85;;;7.00;99.90;;;;;;5054365;28;20037;-68
2023/01/09 05:16:21;;;;;;;14.27;3.47;;;7.00;99.90;;;;;;5071646;28;20052;-68
2023/01/09 05:18:47;;;;;;;7.20;3.08;;;7.00;99.90;;;;;;5072516;28;20040;-68
2023/01/09 05:21:13;;;;;;;12.20;3.25;;;7.00;99.90;;;;;;5074240;28;20035;-69
2023/01/09 05:23:38;;;;;;;11.93;3.83;;;7.00;99.90;;;;;;5074693;28;20111;-68
2023/01/09 05:26:04;;;;;;;17.00;4.03;;;7.00;99.90;;;;;;5055824;28;20036;-68
2023/01/09 05:28:31;;;;;;;7.78;3.25;;;7.00;99.90;;;;;;5059921;28;20126;-67
2023/01/09 05:30:57;;;;;;;9.73;3.17;;;7.00;99.90;;;;;;5071937;28;20107;-67
2023/01/09 05:33:22;;;;;;;10.93;3.05;;;7.10;99.90;;;;;;5074135;28;20108;-67
2023/01/09 05:35:48;;;;;;;12.45;3.38;;;7.10;99.90;;;;;;5074226;28;20427;-68
2023/01/09 05:38:14;;;;;;;7.28;3.25;;;7.10;99.90;;;;;;5073819;28;20109;-68
2023/01/09 05:40:39;;;;;;;8.52;3.05;;;7.10;99.90;;;;;;5073881;28;20485;-68
2023/01/09 05:43:05;;;;;;;9.82;3.25;;;7.20;99.90;;;;;;5073785;28;20029;-67
2023/01/09 05:45:30;;;;;;;9.60;3.40;;;7.20;99.90;;;;;;5069038;28;20104;-67
2023/01/09 05:47:56;;;;;;;8.38;2.47;;;7.20;99.90;;;;;;5072919;28;20036;-68
2023/01/09 05:50:22;;;;;;;11.23;3.60;;;7.20;99.90;;;;;;5072690;28;20032;-68
2023/01/09 05:52:47;;;;;;;9.93;3.75;;;7.20;99.90;;;;;;5073715;28;20020;-67
2023/01/09 05:55:13;;;;;;;10.00;3.10;;;7.30;99.90;;;;;;5073128;28;20078;-67
2023/01/09 05:57:39;;;;;;;11.05;4.00;;;7.30;99.90;;;;;;5071648;28;20114;-68
2023/01/09 06:00:05;;;;;;;15.23;4.22;;;7.30;99.90;;;;;;5073286;28;20032;-67
2023/01/09 06:02:30;;;;;;;11.93;3.78;;;7.30;99.90;;;;;;5075661;28;20032;-67
2023/01/09 06:04:56;;;;;;;13.02;2.95;;;7.30;99.90;;;;;;5093707;28;20031;-68
2023/01/09 06:07:22;;;;;;;10.02;4.10;;;7.30;99.90;;;;;;5073678;28;20029;-67
2023/01/09 06:09:47;;;;;;;8.43;3.53;;;7.30;99.90;;;;;;5073538;28;20086;-67
2023/01/09 06:12:13;;;;;;;10.98;3.40;;;7.20;99.90;;;;;;5071976;28;20035;-68
2023/01/09 06:14:38;;;;;;;13.90;3.80;;;7.20;99.90;;;;;;5055424;28;20059;-68
2023/01/09 06:17:05;;;;;;;11.20;3.75;;;7.20;99.90;;;;;;5071369;28;20485;-68
2023/01/09 06:19:31;;;;;;;11.35;3.75;;;7.20;99.90;;;;;;5073172;28;20024;-68
2023/01/09 06:21:56;;;;;;;15.18;4.28;;;7.20;99.90;;;;;;5073061;28;20034;-68
2023/01/09 06:24:22;;;;;;;13.55;4.60;;;7.20;99.90;;;;;;5073550;28;20024;-68
2023/01/09 06:26:47;;;;;;;12.68;4.43;;;7.30;99.90;;;;;;5071718;28;20468;-68
2023/01/09 06:29:13;;;;;;;10.70;4.13;;;7.30;99.90;;;;;;5072931;28;20174;-68
2023/01/09 06:31:39;;;;;;;11.82;4.45;;;7.30;99.90;;;;;;5053719;28;20166;-68
2023/01/09 06:34:04;;;;;;;15.05;3.95;;;7.40;99.90;;;;;;5071541;28;20047;-68
2023/01/09 06:36:30;;;;;;;13.70;5.47;;;7.40;99.90;;;;;;5070046;28;20137;-69
2023/01/09 06:38:55;;;;;;;15.52;5.57;;;7.40;99.90;;;;;;5070379;28;20035;-69
2023/01/09 06:41:21;;;;;;;16.85;6.55;;;7.40;99.90;;;;;;5072164;28;20024;-69
2023/01/09 06:43:46;;;;;;;14.55;5.65;;;7.50;99.90;;;;;;5071176;28;20060;-70
2023/01/09 06:46:13;;;;;;;15.98;6.78;;;7.50;99.90;;;;;;5069895;28;20032;-70
2023/01/09 06:48:38;;;;;;;18.83;6.30;;;7.50;99.90;;;;;;5055030;28;20422;-69
2023/01/09 06:51:04;;;;;;;16.85;6.15;;;7.50;99.90;;;;;;5071541;28;20044;-70
2023/01/09 06:53:30;;;;;;;20.45;6.32;;;7.50;99.90;;;;;;5072402;28;20032;-70
2023/01/09 06:55:55;;;;;;;20.02;7.07;;;7.50;99.90;;;;;;5069598;28;20036;-70
2023/01/09 06:58:21;;;;;;;18.85;7.60;;;7.40;99.90;;;;;;5072315;28;20028;-71
2023/01/09 07:00:48;;;;;;;14.13;6.43;;;7.40;99.90;;;;;;5070718;28;20058;-70
2023/01/09 07:03:18;;;;;;;15.85;6.63;;;7.50;99.90;;;;;;5071102;28;20032;-70
2023/01/09 07:05:45;;;;;;;19.08;7.55;;;7.50;99.90;;;;;;5071388;28;20407;-70
2023/01/09 07:08:10;;;;;;;17.45;6.72;;;7.40;99.90;;;;;;5072885;28;20486;-71
2023/01/09 07:10:36;;;;;;;17.65;8.13;;;7.50;99.90;;;;;;5071970;28;20036;-71
2023/01/09 07:13:02;;;;;;;23.55;9.18;;;7.50;99.90;;;;;;5074433;28;20069;-70
2023/01/09 07:15:27;;;;;;;20.85;7.45;;;7.50;99.90;;;;;;5074777;28;20048;-70
2023/01/09 07:17:53;;;;;;;14.80;7.60;;;7.50;99.90;;;;;;5055147;28;20477;-72
2023/01/09 07:20:19;;;;;;;20.77;7.45;;;7.50;99.90;;;;;;5062144;28;20111;-70
2023/01/09 07:22:45;;;;;;;19.77;8.50;;;7.50;99.90;;;;;;5063682;28;20058;-71
2023/01/09 07:25:11;;;;;;;18.98;7.75;;;7.50;99.90;;;;;;5072213;28;20057;-70
2023/01/09 07:27:37;;;;;;;18.85;8.10;;;7.60;99.90;;;;;;5071125;28;20024;-71
2023/01/09 07:30:04;;;;;;;22.70;8.68;;;7.60;99.90;;;;;;5071937;28;20035;-72
2023/01/09 07:32:30;;;;;;;20.73;8.52;;;7.60;99.90;;;;;;5054316;28;20087;-70
2023/01/09 07:34:55;;;;;;;22.63;9.55;;;7.60;99.90;;;;;;5052017;28;20473;-72
2023/01/09 07:37:21;;;;;;;23.02;8.75;;;7.50;99.90;;;;;;5065503;28;20047;-69
2023/01/09 07:39:46;;;;;;;19.58;8.70;;;7.60;99.90;;;;;;5070533;28;20487;-71
2023/01/09 07:42:13;;;;;;;20.85;8.68;;;7.60;99.90;;;;;;5072202;28;20325;-71
2023/01/09 07:44:38;;;;;;;22.45;8.63;;;7.60;99.90;;;;;;5072416;28;20082;-69
2023/01/09 07:47:04;;;;;;;21.98;9.05;;;7.60;99.90;;;;;;5052449;28;20029;-69
2023/01/09 07:49:29;;;;;;;26.88;10.13;;;7.70;99.90;;;;;;5061358;28;20040;-69
2023/01/09 07:51:55;;;;;;;20.75;9.88;;;7.70;99.90;;;;;;5055218;28;20033;-69
2023/01/09 07:54:21;;;;;;;25.35;9.73;;;7.70;99.90;;;;;;5054828;28;20419;-68
2023/01/09 07:56:47;;;;;;;28.77;11.63;;;7.80;99.90;;;;;;5074330;28;20086;-71
2023/01/09 07:59:12;;;;;;;25.98;9.70;;;7.80;99.90;;;;;;5074484;28;20476;-71
2023/01/09 08:01:38;;;;;;;19.10;8.48;;;7.90;99.90;;;;;;5068536;28;20054;-71
2023/01/09 08:04:03;;;;;;;22.67;9.07;;;7.90;99.90;;;;;;5055429;28;20025;-69
2023/01/09 08:06:30;;;;;;;22.50;9.20;;;7.90;99.90;;;;;;5055861;28;20036;-70
2023/01/09 08:08:56;;;;;;;20.63;9.30;;;7.80;99.90;;;;;;5070416;28;20111;-69
2023/01/09 08:11:22;;;;;;;24.48;8.90;;;7.80;99.90;;;;;;5065946;28;20365;-69
2023/01/09 08:13:48;;;;;;;19.30;8.77;;;7.80;99.90;;;;;;5071739;28;20020;-69
2023/01/09 08:16:13;;;;;;;23.88;9.63;;;7.80;99.90;;;;;;5075089;28;20407;-69
2023/01/09 08:18:39;;;;;;;21.95;9.00;;;7.80;99.90;;;;;;5073916;28;20447;-69
2023/01/09 08:21:05;;;;;;;22.40;9.10;;;7.80;99.90;;;;;;5068049;28;20082;-69
2023/01/09 08:23:30;;;;;;;22.08;9.60;;;7.80;99.90;;;;;;5075670;28;20028;-69
2023/01/09 08:25:56;;;;;;;25.67;10.10;;;7.80;99.90;;;;;;5067537;28;20103;-68
2023/01/09 08:28:21;;;;;;;27.25;11.00;;;7.90;99.90;;;;;;5066127;28;20438;-69
2023/01/09 08:30:47;;;;;;;28.15;11.80;;;7.90;99.90;;;;;;5071572;28;20028;-69
2023/01/09 08:33:13;;;;;;;27.00;11.77;;;8.00;99.90;;;;;;5055249;28;20060;-69
2023/01/09 08:35:38;;;;;;;24.20;11.45;;;8.00;99.90;;;;;;5068322;28;20025;-69
2023/01/09 08:38:04;;;;;;;26.35;11.23;;;8.10;99.90;;;;;;5073210;28;20032;-70
2023/01/09 08:40:30;;;;;;;23.95;10.55;;;8.10;99.90;;;;;;5074697;28;20048;-70
2023/01/09 08:48:24;;;;;;;27.42;11.43;;;8.20;99.90;;;;;;5074466;28;20036;-72
2023/01/09 08:50:49;;;;;;;33.60;11.95;;;8.20;99.90;;;;;;5064687;28;20029;-71
2023/01/09 08:53:15;;;;;;;31.80;13.07;;;8.20;99.90;;;;;;5073917;28;20068;-71
2023/01/09 08:55:42;;;;;;;30.90;12.20;;;8.20;99.90;;;;;;5074734;28;20021;-71
2023/01/09 08:58:07;;;;;;;26.80;11.20;;;8.20;99.90;;;;;;5071813;28;20039;-71
2023/01/09 09:00:33;;;;;;;31.17;11.43;;;8.20;99.90;;;;;;5073689;28;20032;-71
2023/01/09 09:03:00;;;;;;;30.42;10.82;;;8.20;99.90;;;;;;5071905;28;20025;-71
2023/01/09 09:05:27;;;;;;;25.88;8.98;;;8.20;99.90;;;;;;5074716;28;20056;-72
2023/01/09 09:07:54;;;;;;;16.45;6.32;;;8.20;99.90;;;;;;5085257;28;20032;-71
2023/01/09 09:10:24;;;;;;;19.92;5.28;;;8.20;99.90;;;;;;5065851;28;20028;-71
2023/01/09 09:12:51;;;;;;;11.25;4.43;;;8.30;99.90;;;;;;5071767;28;20090;-72
2023/01/09 09:15:22;;;;;;;10.45;3.63;;;8.30;99.90;;;;;;5073928;28;20451;-71
2023/01/09 09:17:59;;;;;;;11.53;3.70;;;8.30;99.90;;;;;;5071329;28;20040;-71
2023/01/09 09:20:33;;;;;;;15.10;3.55;;;8.40;99.90;;;;;;5074008;28;20021;-71
2023/01/09 09:22:59;;;;;;;9.13;2.20;;;8.40;99.90;;;;;;5074714;28;20056;-70
2023/01/09 09:25:26;;;;;;;9.15;1.95;;;8.40;99.90;;;;;;5071657;28;20055;-70
2023/01/09 09:27:51;;;;;;;16.33;2.63;;;8.40;99.90;;;;;;5073438;28;20535;-70
2023/01/09 09:30:18;;;;;;;18.58;2.83;;;8.50;99.90;;;;;;5073088;28;20104;-70
2023/01/09 09:32:45;;;;;;;12.65;2.33;;;8.50;99.90;;;;;;5051850;28;20343;-70
2023/01/09 09:35:11;;;;;;;13.98;3.45;;;8.60;99.90;;;;;;5055431;28;20017;-70
2023/01/09 09:37:37;;;;;;;17.95;2.47;;;8.60;99.90;;;;;;5070167;28;20101;-70
2023/01/09 09:40:05;;;;;;;15.05;2.60;;;8.70;99.90;;;;;;5067052;28;20032;-70
2023/01/09 09:45:30;;;;;;;13.45;2.47;;;8.80;99.90;;;;;;5069645;28;20039;-70
2023/01/09 09:48:17;;;;;;;12.30;2.35;;;8.90;99.90;;;;;;5053928;28;20132;-69
2023/01/09 09:50:54;;;;;;;15.00;2.70;;;9.00;99.90;;;;;;5057404;28;20469;-69
2023/01/09 09:53:30;;;;;;;13.38;2.40;;;9.00;99.90;;;;;;5073122;28;20035;-69
2023/01/09 09:55:56;;;;;;;17.83;2.35;;;9.10;99.90;;;;;;5055372;28;20063;-69
2023/01/09 09:58:28;;;;;;;5.43;2.38;;;9.10;99.90;;;;;;5069064;28;20103;-69
2023/01/09 10:00:55;;;;;;;17.05;2.10;;;9.10;99.90;;;;;;5059876;28;20371;-69
2023/01/09 10:03:29;;;;;;;19.45;4.72;;;9.20;99.90;;;;;;5054330;28;20025;-70
2023/01/09 10:05:59;;;;;;;13.10;2.28;;;9.30;99.90;;;;;;5042751;28;20024;-70
2023/01/09 10:08:37;;;;;;;11.63;1.88;;;9.30;99.90;;;;;;5071748;28;20488;-69
2023/01/09 10:11:04;;;;;;;9.43;1.63;;;9.40;99.90;;;;;;5053518;28;20025;-69
2023/01/09 10:14:11;;;;;;;12.23;1.80;;;9.40;99.90;;;;;;5061119;28;20517;-68
2023/01/09 10:16:34;;;;;;;13.68;3.58;;;9.50;99.90;;;;;;5060985;28;20163;-69
2023/01/09 10:19:18;;;;;;;11.38;1.80;;;9.50;99.90;;;;;;5064368;28;20029;-68
2023/01/09 10:22:13;;;;;;;10.43;2.08;;;9.40;99.90;;;;;;5066181;28;20110;-69
2023/01/09 10:25:12;;;;;;;14.50;2.13;;;9.40;99.90;;;;;;5052586;28;20041;-68
2023/01/09 10:28:02;;;;;;;13.05;2.13;;;9.50;99.90;;;;;;5069286;28;20028;-68
2023/01/09 10:30:43;;;;;;;22.75;2.92;;;9.60;99.90;;;;;;5052806;28;20033;-69
2023/01/09 10:33:40;;;;;;;10.80;2.13;;;9.60;99.90;;;;;;5053186;28;20121;-68
2023/01/09 10:36:15;;;;;;;12.63;2.15;;;9.70;99.90;;;;;;5070835;28;20037;-68
2023/01/09 10:38:45;;;;;;;14.98;2.35;;;9.70;99.90;;;;;;5073134;28;20067;-68
2023/01/09 10:41:29;;;;;;;8.95;2.03;;;9.80;99.90;;;;;;5071872;28;20076;-68
2023/01/09 10:44:24;;;;;;;13.77;2.83;;;9.80;99.90;;;;;;5062923;28;20050;-68
2023/01/09 10:46:54;;;;;;;12.15;1.73;;;9.90;99.90;;;;;;5045029;28;20045;-68
2023/01/09 10:49:22;;;;;;;12.07;2.55;;;9.90;99.90;;;;;;5071109;28;20020;-68
2023/01/09 10:51:51;;;;;;;12.25;2.00;;;9.90;99.90;;;;;;5064722;28;20149;-68
2023/01/09 10:54:22;;;;;;;15.32;2.55;;;9.90;99.90;;;;;;5052213;28;20094;-68
2023/01/09 10:57:11;;;;;;;11.68;2.20;;;9.90;99.90;;;;;;5077343;28;20036;-68
2023/01/09 10:59:38;;;;;;;16.67;2.47;;;10.00;99.90;;;;;;5054506;28;20036;-68
2023/01/09 11:02:04;;;;;;;16.35;2.10;;;9.90;99.90;;;;;;5061846;28;20069;-68
2023/01/09 11:04:33;;;;;;;14.43;2.63;;;10.00;99.90;;;;;;5051780;28;20511;-68
2023/01/09 11:07:17;;;;;;;12.82;2.38;;;10.00;99.90;;;;;;5059247;28;20547;-69
2023/01/09 11:10:06;;;;;;;16.55;2.53;;;10.10;99.90;;;;;;5061785;28;20029;-69
2023/01/09 11:12:33;;;;;;;9.27;2.25;;;10.50;99.90;;;;;;5052912;28;20449;-68
2023/01/09 11:15:20;;;;;;;12.98;2.50;;;11.10;99.90;;;;;;5065654;28;20048;-68
2023/01/09 11:17:46;;;;;;;15.70;3.28;;;11.40;99.90;;;;;;5050335;28;20041;-69
2023/01/09 11:20:19;;;;;;;14.02;2.20;;;12.00;99.90;;;;;;5051632;28;20025;-68
2023/01/09 11:22:56;;;;;;;14.07;2.35;;;12.20;99.90;;;;;;5049168;28;20040;-68
2023/01/09 11:25:27;;;;;;;16.13;3.05;;;12.10;99.90;;;;;;5050718;28;20053;-69
2023/01/09 11:28:01;;;;;;;14.55;2.63;;;12.10;99.90;;;;;;5042636;28;20071;-68
2023/01/09 11:30:28;;;;;;;9.73;2.33;;;11.90;99.90;;;;;;5048295;28;20025;-68
2023/01/09 11:33:00;;;;;;;17.05;3.10;;;11.70;99.90;;;;;;5039115;28;20029;-68
2023/01/09 11:35:27;;;;;;;12.30;2.45;;;11.50;99.90;;;;;;5051683;28;20025;-68
2023/01/09 11:38:15;;;;;;;16.33;3.25;;;11.30;99.90;;;;;;5050933;28;20040;-69
2023/01/09 11:40:48;;;;;;;17.55;3.10;;;11.10;99.90;;;;;;5051588;28;20088;-68
2023/01/09 11:43:20;;;;;;;23.55;4.28;;;11.00;99.90;;;;;;5051851;28;20057;-69
2023/01/09 11:45:55;;;;;;;16.10;3.00;;;10.90;99.90;;;;;;5035774;28;20056;-69
2023/01/09 11:48:36;;;;;;;15.90;2.80;;;10.80;99.90;;;;;;5046314;28;20123;-68
2023/01/09 11:51:16;;;;;;;18.13;3.27;;;10.70;99.90;;;;;;5051574;28;20029;-68
2023/01/09 11:53:53;;;;;;;20.73;2.72;;;10.70;99.90;;;;;;5033583;28;20278;-68
2023/01/09 11:56:19;;;;;;;15.38;2.88;;;10.80;99.90;;;;;;5044186;28;20500;-68
2023/01/09 11:58:44;;;;;;;12.00;2.20;;;10.90;99.90;;;;;;5033097;28;20040;-68
2023/01/09 12:01:22;;;;;;;16.75;3.00;;;11.00;99.90;;;;;;5039422;28;20057;-68
2023/01/09 12:04:22;;;;;;;11.52;2.58;;;10.90;99.90;;;;;;5047926;28;20032;-68
2023/01/09 12:07:05;;;;;;;18.83;3.25;;;10.90;99.90;;;;;;5048438;28;20013;-68
2023/01/09 12:09:36;;;;;;;16.83;2.72;;;10.90;99.90;;;;;;5050549;28;20052;-70
2023/01/09 12:12:28;;;;;;;19.23;3.23;;;10.80;99.90;;;;;;5049260;28;20063;-70
2023/01/09 12:15:07;;;;;;;15.43;2.70;;;10.80;99.90;;;;;;5045398;28;20048;-70
2023/01/09 12:18:22;;;;;;;15.18;3.50;;;10.80;99.90;;;;;;5071589;28;20068;-70
2023/01/09 12:21:06;;;;;;;14.43;2.78;;;11.00;99.90;;;;;;5059032;28;20029;-70
2023/01/09 12:24:16;;;;;;;14.30;2.78;;;11.10;99.90;;;;;;5063941;28;20036;-70
2023/01/09 12:26:44;;;;;;;14.18;2.58;;;11.20;99.90;;;;;;5057974;28;20093;-69
2023/01/09 12:29:29;;;;;;;11.85;2.92;;;11.20;99.90;;;;;;5060312;28;20173;-69
2023/01/09 12:32:01;;;;;;;17.17;3.28;;;11.20;99.90;;;;;;5059295;28;20059;-69
2023/01/09 12:34:52;;;;;;;18.52;3.55;;;11.20;99.90;;;;;;5066274;28;20392;-69
2023/01/09 12:37:34;;;;;;;17.80;3.22;;;11.20;99.90;;;;;;5060355;28;20157;-69
2023/01/09 12:40:11;;;;;;;20.15;3.20;;;11.00;99.90;;;;;;5074242;28;20038;-68
2023/01/09 12:42:44;;;;;;;16.70;3.33;;;10.90;99.90;;;;;;5063943;28;20044;-69
2023/01/09 12:45:29;;;;;;;14.85;2.92;;;10.90;99.90;;;;;;5063154;28;20033;-68
2023/01/09 12:48:08;;;;;;;16.23;3.08;;;11.00;99.90;;;;;;5073525;28;20028;-69
2023/01/09 12:50:52;;;;;;;15.93;3.60;;;11.30;99.90;;;;;;5077460;28;20474;-69
2023/01/09 12:53:31;;;;;;;14.48;2.20;;;11.40;99.90;;;;;;5067408;28;20095;-68
2023/01/09 12:56:06;;;;;;;17.83;2.72;;;11.40;99.90;;;;;;5073836;28;20045;-68
2023/01/09 12:58:45;;;;;;;13.82;2.53;;;11.40;99.90;;;;;;5068034;28;20519;-68
2023/01/09 13:01:27;;;;;;;16.80;2.75;;;11.40;99.90;;;;;;5067511;28;20021;-69
2023/01/09 13:04:13;;;;;;;18.08;2.60;;;11.60;99.90;;;;;;5069077;28;20384;-68
2023/01/09 13:06:44;;;;;;;16.92;2.42;;;11.80;99.90;;;;;;5073211;28;20024;-69
2023/01/09 13:09:18;;;;;;;19.67;3.08;;;12.20;99.90;;;;;;5049174;28;20388;-68
2023/01/09 13:12:13;;;;;;;14.55;2.38;;;12.40;99.90;;;;;;5064197;28;20100;-68
2023/01/09 13:14:51;;;;;;;12.32;2.08;;;12.30;99.90;;;;;;5069297;28;20079;-68
2023/01/09 13:17:26;;;;;;;9.43;1.95;;;12.50;99.90;;;;;;5060989;28;20040;-68
2023/01/09 13:19:53;;;;;;;12.93;2.03;;;12.60;99.90;;;;;;5066219;28;20036;-68